Time;durP1;ratioP1;P1;durP2;ratioP2;P2;SDS_P1;SDS_P2;PMS_P1;PMS_P2;Temp;Humidity;BMP_temperature;BMP_pressure;BME280_temperature;BME280_humidity;BME280_pressure;Samples;Min_cycle;Max_cycle;Signal;HPM_P1;HPM_P2
2023/08/11 00:01:31;;;;;;;3.45;1.08;;;;;;;14.32;100.00;98902.88;15297419;19;20033;-78
2023/08/11 00:06:57;;;;;;;3.45;1.08;;;;;;;14.27;100.00;98894.44;15303209;19;20010;-79
2023/08/11 00:12:22;;;;;;;1.63;0.80;;;;;;;14.22;100.00;98904.94;15306109;19;20053;-79
2023/08/11 00:17:50;;;;;;;2.53;1.10;;;;;;;14.15;100.00;98899.38;15305418;19;20431;-80
2023/08/11 00:23:15;;;;;;;2.33;0.93;;;;;;;14.08;100.00;98903.81;15309576;19;20010;-78
2023/08/11 00:28:40;;;;;;;2.40;0.98;;;;;;;14.00;100.00;98904.66;15305514;19;20045;-78
2023/08/11 00:34:07;;;;;;;1.58;0.70;;;;;;;13.92;100.00;98907.38;15307757;19;20018;-79
2023/08/11 00:39:33;;;;;;;2.90;0.80;;;;;;;13.83;100.00;98910.09;15298358;19;20436;-79
2023/08/11 00:44:59;;;;;;;3.10;1.02;;;;;;;13.74;100.00;98912.97;15300210;19;20675;-79
2023/08/11 00:50:27;;;;;;;3.15;1.10;;;;;;;13.69;100.00;98924.31;15301831;19;20010;-79
2023/08/11 00:55:51;;;;;;;1.98;1.10;;;;;;;13.63;100.00;98923.16;15305704;19;20050;-79
2023/08/11 01:01:16;;;;;;;3.33;1.10;;;;;;;13.58;100.00;98919.25;15316075;19;20050;-79
2023/08/11 01:06:50;;;;;;;2.65;1.08;;;;;;;13.49;100.00;98934.63;15303164;19;20037;-80
2023/08/11 01:12:27;;;;;;;1.50;0.90;;;;;;;13.38;100.00;98930.34;15290882;19;20360;-80
2023/08/11 01:17:55;;;;;;;1.98;1.10;;;;;;;13.29;100.00;98936.75;15289692;19;20014;-78
2023/08/11 01:23:24;;;;;;;3.00;1.10;;;;;;;13.20;100.00;98935.88;15297159;19;20010;-79
2023/08/11 01:28:49;;;;;;;3.65;1.10;;;;;;;13.09;100.00;98915.41;15297648;19;20082;-80
2023/08/11 01:34:14;;;;;;;2.13;1.08;;;;;;;13.01;100.00;98921.66;15298277;19;20414;-78
2023/08/11 01:39:41;;;;;;;2.35;1.15;;;;;;;12.92;100.00;98915.38;15297521;19;20014;-80
2023/08/11 01:45:07;;;;;;;2.25;1.20;;;;;;;12.85;100.00;98919.75;15303278;19;20032;-79
2023/08/11 01:50:33;;;;;;;3.08;1.10;;;;;;;12.77;100.00;98922.41;15361329;19;20007;-80
2023/08/11 01:56:01;;;;;;;2.80;1.17;;;;;;;12.70;100.00;98919.50;15290636;19;20018;-78
2023/08/11 02:01:32;;;;;;;1.35;1.00;;;;;;;12.61;100.00;98918.63;15286840;19;20006;-78
2023/08/11 02:06:57;;;;;;;5.07;1.13;;;;;;;12.56;100.00;98915.56;15290900;19;20011;-78
2023/08/11 02:12:25;;;;;;;1.30;1.00;;;;;;;12.50;100.00;98918.94;15292997;19;20014;-78
2023/08/11 02:17:50;;;;;;;3.38;1.20;;;;;;;12.45;100.00;98919.41;15281887;19;20021;-78
2023/08/11 02:23:14;;;;;;;3.28;1.08;;;;;;;12.37;100.00;98929.31;15287055;19;20094;-78
2023/08/11 02:28:43;;;;;;;3.25;1.13;;;;;;;12.32;100.00;98927.09;15292068;19;20026;-78
2023/08/11 02:34:09;;;;;;;1.20;1.00;;;;;;;12.27;100.00;98922.19;15294326;19;20476;-78
2023/08/11 02:39:34;;;;;;;2.90;1.10;;;;;;;12.25;100.00;98923.31;15294270;19;20077;-78
2023/08/11 02:45:03;;;;;;;1.73;1.20;;;;;;;12.20;100.00;98921.09;15290786;19;20014;-79
2023/08/11 02:50:28;;;;;;;2.97;1.10;;;;;;;12.15;100.00;98924.28;15280145;19;20081;-78
2023/08/11 02:55:52;;;;;;;3.15;1.20;;;;;;;12.10;100.00;98929.34;15287790;19;20387;-79
2023/08/11 03:01:27;;;;;;;1.65;1.00;;;;;;;12.08;100.00;98933.19;15287855;19;20478;-79
2023/08/11 03:06:52;;;;;;;1.30;1.10;;;;;;;12.02;100.00;98935.53;15284502;19;20018;-78
2023/08/11 03:12:19;;;;;;;3.13;1.23;;;;;;;11.96;100.00;98936.13;15289924;19;20560;-78
2023/08/11 03:17:47;;;;;;;3.50;1.20;;;;;;;11.92;100.00;98934.75;15286913;19;20022;-78
2023/08/11 03:23:13;;;;;;;3.13;1.20;;;;;;;11.86;100.00;98936.22;15283692;19;20022;-78
2023/08/11 03:28:39;;;;;;;1.88;1.20;;;;;;;11.84;100.00;98931.97;15289858;19;20089;-79
2023/08/11 03:34:08;;;;;;;2.17;1.23;;;;;;;11.79;100.00;98929.75;15315451;19;20022;-79
2023/08/11 03:39:32;;;;;;;3.58;1.30;;;;;;;11.77;100.00;98939.00;15317675;19;20022;-77
2023/08/11 03:44:57;;;;;;;2.13;1.10;;;;;;;11.74;100.00;98952.81;15316753;19;20027;-78
2023/08/11 03:50:26;;;;;;;1.73;1.00;;;;;;;11.72;100.00;98959.22;15315630;19;20018;-81
2023/08/11 03:55:51;;;;;;;3.67;1.10;;;;;;;11.69;100.00;98956.84;15338836;19;20002;-78
2023/08/11 04:01:22;;;;;;;4.07;1.20;;;;;;;11.66;100.00;98950.88;15330815;19;20025;-81
2023/08/11 04:06:51;;;;;;;1.98;1.10;;;;;;;11.65;100.00;98958.16;15302294;19;20010;-81
2023/08/11 04:12:17;;;;;;;1.98;1.00;;;;;;;11.62;100.00;98961.16;15304801;19;20019;-80
2023/08/11 04:17:42;;;;;;;2.80;1.10;;;;;;;11.60;100.00;98965.84;15297231;19;20535;-79
2023/08/11 04:23:10;;;;;;;2.38;1.10;;;;;;;11.57;100.00;98958.91;15297832;19;20031;-77
2023/08/11 04:28:36;;;;;;;1.70;1.17;;;;;;;11.56;100.00;98959.91;15289764;19;20049;-77
2023/08/11 04:34:03;;;;;;;3.60;1.33;;;;;;;11.55;100.00;98966.31;15289747;19;20026;-76
2023/08/11 04:39:31;;;;;;;1.25;1.10;;;;;;;11.55;100.00;98966.31;15291604;19;20025;-77
2023/08/11 04:44:56;;;;;;;3.08;1.30;;;;;;;11.53;100.00;98967.47;15294465;19;20018;-78
2023/08/11 04:50:23;;;;;;;2.88;1.20;;;;;;;11.54;100.00;98959.22;15293147;19;20037;-77
2023/08/11 04:55:51;;;;;;;3.60;1.23;;;;;;;11.57;100.00;98974.28;15294111;19;20022;-78
2023/08/11 05:01:24;;;;;;;2.30;1.13;;;;;;;11.60;100.00;98971.25;15288225;19;20361;-77
2023/08/11 05:06:55;;;;;;;2.73;1.23;;;;;;;11.61;100.00;98986.44;15292310;19;20027;-78
2023/08/11 05:12:23;;;;;;;2.75;1.40;;;;;;;11.63;100.00;98992.53;15298445;19;20420;-77
2023/08/11 05:17:47;;;;;;;1.70;1.00;;;;;;;11.66;100.00;98981.44;15308983;19;20041;-78
2023/08/11 05:23:12;;;;;;;2.47;1.30;;;;;;;11.72;100.00;98988.91;15361018;19;20028;-75
2023/08/11 05:28:42;;;;;;;2.85;1.17;;;;;;;11.80;100.00;98984.59;15288636;19;20018;-75
2023/08/11 05:34:09;;;;;;;3.55;1.35;;;;;;;11.90;100.00;98989.88;15283034;19;20015;-78
2023/08/11 05:39:34;;;;;;;3.35;1.10;;;;;;;11.97;100.00;98997.22;15287116;19;20491;-77
2023/08/11 05:45:01;;;;;;;2.53;1.30;;;;;;;12.11;100.00;98997.69;15287501;19;20042;-76
2023/08/11 05:50:26;;;;;;;3.45;1.40;;;;;;;12.21;100.00;99005.72;15286026;19;20020;-77
2023/08/11 05:55:50;;;;;;;2.88;1.10;;;;;;;12.34;100.00;99008.84;15288776;19;20021;-77
2023/08/11 06:01:25;;;;;;;3.92;1.42;;;;;;;12.49;100.00;99003.72;15283916;19;20010;-79
2023/08/11 06:06:51;;;;;;;2.13;1.10;;;;;;;12.63;100.00;98997.72;15286857;19;20027;-78
2023/08/11 06:12:16;;;;;;;4.25;1.20;;;;;;;12.80;100.00;98989.69;15289218;19;20010;-78
2023/08/11 06:17:49;;;;;;;2.65;1.17;;;;;;;12.98;100.00;98991.47;15285068;19;20006;-78
2023/08/11 06:23:13;;;;;;;4.45;1.30;;;;;;;13.14;100.00;98991.50;15288831;19;20011;-77
2023/08/11 06:28:37;;;;;;;2.33;1.23;;;;;;;13.29;100.00;98989.00;14779323;19;10000791;-78
2023/08/11 06:34:05;;;;;;;1.20;1.00;;;;;;;13.47;100.00;98991.63;15285899;19;20014;-78
2023/08/11 06:39:31;;;;;;;2.85;1.10;;;;;;;13.68;100.00;98996.56;15287046;19;20106;-79
2023/08/11 06:44:55;;;;;;;4.05;1.10;;;;;;;13.90;100.00;98985.25;15293653;19;20349;-79
2023/08/11 06:50:22;;;;;;;2.15;1.17;;;;;;;14.09;100.00;98981.38;15288468;19;20086;-79
2023/08/11 06:55:47;;;;;;;1.20;1.00;;;;;;;14.32;100.00;98987.78;15285601;19;20035;-77
2023/08/11 07:01:11;;;;;;;2.03;1.00;;;;;;;14.51;100.00;98984.88;15283162;19;20007;-77
2023/08/11 07:06:39;;;;;;;1.50;1.02;;;;;;;14.73;100.00;98984.16;15277100;19;20033;-76
2023/08/11 07:12:03;;;;;;;2.58;1.10;;;;;;;14.92;100.00;98987.47;15280415;19;20019;-77
2023/08/11 07:17:28;;;;;;;2.92;1.05;;;;;;;15.17;100.00;98976.50;15273387;19;20018;-59
2023/08/11 07:22:57;;;;;;;2.30;0.98;;;;;;;15.43;100.00;98980.78;15279777;19;20020;-57
2023/08/11 07:28:22;;;;;;;1.92;1.08;;;;;;;15.63;100.00;98983.88;15279000;19;20021;-54
2023/08/11 07:33:46;;;;;;;2.58;0.90;;;;;;;15.85;100.00;98982.22;15283630;19;20006;-55
2023/08/11 07:39:15;;;;;;;2.53;0.85;;;;;;;16.02;100.00;98983.78;15283198;19;20018;-58
2023/08/11 07:44:43;;;;;;;3.85;0.88;;;;;;;16.30;100.00;98980.47;15282948;19;20023;-58
2023/08/11 07:50:08;;;;;;;1.58;0.70;;;;;;;16.44;100.00;98983.41;15276675;19;20018;-56
2023/08/11 07:55:28;;;;;;;3.35;0.90;;;;;;;16.78;100.00;98976.56;15279612;19;20019;-55
2023/08/11 08:00:53;;;;;;;2.15;0.90;;;;;;;17.00;100.00;98971.22;15281295;19;20056;-56
2023/08/11 08:06:18;;;;;;;1.08;0.75;;;;;;;17.28;100.00;98981.44;15280058;19;20017;-58
2023/08/11 08:11:47;;;;;;;3.13;0.90;;;;;;;17.51;100.00;98973.94;15247555;19;20037;-57
2023/08/11 08:17:13;;;;;;;1.10;0.60;;;;;;;17.79;100.00;98962.28;15273609;19;20025;-57
2023/08/11 08:22:39;;;;;;;1.48;0.63;;;;;;;18.03;100.00;98957.50;15296053;19;20021;-57
2023/08/11 08:28:07;;;;;;;2.35;0.80;;;;;;;18.27;100.00;98972.59;15293885;19;20058;-55
2023/08/11 08:33:32;;;;;;;1.77;0.70;;;;;;;18.46;100.00;98968.31;15286759;19;20010;-55
2023/08/11 08:38:57;;;;;;;3.10;0.80;;;;;;;18.68;100.00;98953.78;15291664;19;20025;-49
2023/08/11 08:44:27;;;;;;;2.13;0.75;;;;;;;18.99;100.00;98957.94;15291018;19;20019;-52
2023/08/11 08:49:54;;;;;;;2.90;0.68;;;;;;;19.24;100.00;98963.72;15295757;19;20006;-52
2023/08/11 08:55:19;;;;;;;2.95;0.82;;;;;;;19.40;100.00;98963.34;15293928;19;20011;-52
2023/08/11 09:00:48;;;;;;;2.28;0.70;;;;;;;19.62;100.00;98959.63;15292335;19;21755;-56
2023/08/11 09:06:15;;;;;;;5.20;0.77;;;;;;;19.96;100.00;98968.75;15289581;19;20015;-57
2023/08/11 09:11:41;;;;;;;1.08;0.65;;;;;;;20.15;100.00;98954.25;15280825;19;20030;-52
2023/08/11 09:17:15;;;;;;;4.75;0.90;;;;;;;20.37;100.00;98950.44;15283183;19;20014;-56
2023/08/11 09:22:39;;;;;;;4.93;0.90;;;;;;;20.55;100.00;98956.09;15293804;19;20035;-53
2023/08/11 09:28:04;;;;;;;4.15;0.90;;;;;;;20.70;100.00;98957.75;15292370;19;20010;-55
2023/08/11 09:33:32;;;;;;;2.60;0.80;;;;;;;20.89;100.00;98954.13;15286783;19;20030;-58
2023/08/11 09:38:58;;;;;;;3.78;1.00;;;;;;;21.04;100.00;98951.16;15294819;19;20476;-53
2023/08/11 09:44:24;;;;;;;3.70;0.90;;;;;;;21.17;97.17;98950.25;15282102;19;20018;-56
2023/08/11 09:49:51;;;;;;;2.65;0.73;;;;;;;21.32;100.00;98965.59;15285501;19;20014;-58
2023/08/11 09:55:18;;;;;;;1.52;0.75;;;;;;;21.38;98.38;98959.22;15289869;19;20025;-57
2023/08/11 10:00:42;;;;;;;1.92;0.80;;;;;;;21.55;100.00;98945.84;15286156;19;20018;-56
2023/08/11 10:06:12;;;;;;;1.52;0.80;;;;;;;21.77;91.54;98951.84;15288551;19;20355;-58
2023/08/11 10:11:41;;;;;;;2.72;0.80;;;;;;;21.86;99.83;98958.75;15286282;19;20079;-57
2023/08/11 10:17:13;;;;;;;4.13;0.70;;;;;;;21.94;92.10;98965.88;15278321;19;20042;-58
2023/08/11 10:22:41;;;;;;;3.95;0.70;;;;;;;22.03;90.39;98960.94;15285711;19;20017;-58
2023/08/11 10:28:10;;;;;;;1.02;0.73;;;;;;;22.22;99.48;98947.28;15281410;19;20020;-59
2023/08/11 10:33:35;;;;;;;2.83;0.60;;;;;;;22.26;93.75;98943.84;15285980;19;20026;-60
2023/08/11 10:39:14;;;;;;;2.88;0.80;;;;;;;22.49;98.32;98944.31;15292449;19;20350;-59
2023/08/11 10:44:39;;;;;;;0.77;0.63;;;;;;;22.55;94.16;98943.41;15287561;19;20018;-60
2023/08/11 10:50:04;;;;;;;1.52;0.73;;;;;;;22.58;93.72;98937.47;15287465;19;20018;-59
2023/08/11 10:55:36;;;;;;;0.95;0.70;;;;;;;22.73;97.67;98932.44;15285948;19;20015;-59
2023/08/11 11:01:00;;;;;;;2.25;0.80;;;;;;;22.76;94.14;98925.66;15286868;19;20021;-59
2023/08/11 11:06:24;;;;;;;2.25;0.90;;;;;;;22.90;93.05;98920.84;15286146;19;20024;-59
2023/08/11 11:11:53;;;;;;;1.17;0.70;;;;;;;23.12;90.06;98926.69;15286873;19;20021;-60
2023/08/11 11:17:19;;;;;;;2.67;0.50;;;;;;;23.21;88.57;98924.50;15297714;19;20078;-61
2023/08/11 11:22:46;;;;;;;1.27;0.60;;;;;;;23.28;88.65;98919.75;15289530;19;20027;-60
2023/08/11 11:28:14;;;;;;;1.42;0.60;;;;;;;23.33;84.97;98910.81;15276167;19;20018;-59
2023/08/11 11:33:40;;;;;;;2.47;0.70;;;;;;;23.42;86.91;98909.41;15282168;19;20097;-59
2023/08/11 11:39:08;;;;;;;1.10;0.70;;;;;;;23.63;85.31;98905.28;15285107;19;20097;-62
2023/08/11 11:44:35;;;;;;;1.30;0.75;;;;;;;23.90;94.04;98899.38;15283295;19;20035;-59
2023/08/11 11:50:01;;;;;;;1.00;0.65;;;;;;;24.05;84.78;98901.69;15282681;19;20408;-59
2023/08/11 11:55:26;;;;;;;3.30;0.80;;;;;;;24.21;91.61;98894.63;15289832;19;20006;-60
2023/08/11 12:00:55;;;;;;;3.45;0.80;;;;;;;24.30;80.65;98890.44;15300635;19;20014;-58
2023/08/11 12:06:21;;;;;;;0.90;0.68;;;;;;;24.49;80.22;98898.59;15296542;19;20510;-61
2023/08/11 12:11:45;;;;;;;1.00;0.57;;;;;;;24.58;82.31;98899.88;15295546;19;20021;-59
2023/08/11 12:17:20;;;;;;;1.17;0.70;;;;;;;24.67;79.00;98891.25;15295649;19;20021;-59
2023/08/11 12:22:45;;;;;;;3.95;0.60;;;;;;;25.02;85.33;98890.34;15295613;19;20090;-59
2023/08/11 12:28:09;;;;;;;1.23;0.70;;;;;;;25.25;85.70;98883.91;15290230;19;20010;-60
2023/08/11 12:33:38;;;;;;;2.05;0.60;;;;;;;25.37;76.52;98881.94;15295378;19;20021;-58
2023/08/11 12:39:02;;;;;;;2.00;0.70;;;;;;;25.53;78.49;98877.56;15295812;19;20027;-54
2023/08/11 12:44:27;;;;;;;1.90;0.68;;;;;;;25.59;73.75;98874.88;15295100;19;20010;-58
2023/08/11 12:49:54;;;;;;;3.13;0.80;;;;;;;25.66;73.27;98870.06;15296886;19;20010;-58
2023/08/11 12:55:19;;;;;;;3.65;0.70;;;;;;;25.84;75.59;98867.06;15288780;19;20014;-55
2023/08/11 13:00:43;;;;;;;1.45;0.63;;;;;;;25.97;72.48;98871.41;15289827;19;20014;-57
2023/08/11 13:06:10;;;;;;;1.38;0.60;;;;;;;26.04;69.66;98865.72;15290977;19;20010;-56
2023/08/11 13:11:35;;;;;;;1.42;0.65;;;;;;;26.27;73.37;98869.41;15292668;19;20014;-58
2023/08/11 13:16:59;;;;;;;2.95;0.70;;;;;;;26.53;69.85;98869.75;15291747;19;20465;-57
2023/08/11 13:22:27;;;;;;;1.50;0.50;;;;;;;26.89;71.40;98859.19;15293041;19;20020;-57
2023/08/11 13:27:52;;;;;;;3.78;0.70;;;;;;;27.21;68.56;98864.81;15284966;19;20019;-56
2023/08/11 13:33:16;;;;;;;1.92;0.70;;;;;;;27.38;70.04;98859.19;15282608;19;20687;-58
2023/08/11 13:38:43;;;;;;;1.38;0.70;;;;;;;27.69;66.35;98862.25;15293835;19;20031;-53
2023/08/11 13:44:08;;;;;;;1.33;0.60;;;;;;;27.71;66.24;98852.84;15293087;19;20018;-54
2023/08/11 13:49:33;;;;;;;1.85;0.60;;;;;;;27.93;63.95;98852.75;15292256;19;20021;-56
2023/08/11 13:55:10;;;;;;;1.88;0.60;;;;;;;28.34;64.81;98844.78;15287090;19;20014;-58
2023/08/11 14:00:35;;;;;;;1.50;0.57;;;;;;;28.85;68.24;98844.22;15287153;19;20029;-58
2023/08/11 14:05:59;;;;;;;1.10;0.55;;;;;;;29.36;63.85;98843.53;15282875;19;20014;-58
2023/08/11 14:11:26;;;;;;;0.60;0.50;;;;;;;29.82;62.47;98839.94;15291054;19;20021;-59
2023/08/11 14:16:51;;;;;;;1.80;0.50;;;;;;;30.21;61.27;98834.94;15285761;19;20014;-53
2023/08/11 14:22:16;;;;;;;2.08;0.50;;;;;;;30.36;55.48;98837.69;15289355;19;20014;-58
2023/08/11 14:27:43;;;;;;;3.28;0.50;;;;;;;30.28;58.91;98824.38;15286678;19;20018;-57
2023/08/11 14:33:08;;;;;;;2.28;0.47;;;;;;;30.44;56.17;98823.19;15280199;19;20022;-54
2023/08/11 14:38:32;;;;;;;1.38;0.52;;;;;;;30.49;57.17;98818.72;15283384;19;20010;-57
2023/08/11 14:43:59;;;;;;;2.65;0.50;;;;;;;30.64;54.26;98820.66;15286112;19;20010;-56
2023/08/11 14:49:24;;;;;;;0.80;0.40;;;;;;;30.86;54.78;98806.38;15289137;19;20045;-56
2023/08/11 14:54:50;;;;;;;2.47;0.47;;;;;;;31.44;53.95;98802.13;15281524;19;20018;-59
2023/08/11 15:00:18;;;;;;;1.27;0.50;;;;;;;32.09;54.65;98804.63;15285898;19;20426;-57
2023/08/11 15:05:43;;;;;;;2.88;0.47;;;;;;;32.43;50.78;98808.47;15279826;19;20590;-56
2023/08/11 15:11:07;;;;;;;1.17;0.60;;;;;;;32.30;53.09;98798.88;15279056;19;20414;-57
2023/08/11 15:16:34;;;;;;;1.08;0.50;;;;;;;32.54;52.96;98792.44;15282894;19;20015;-57
2023/08/11 15:21:59;;;;;;;1.75;0.40;;;;;;;32.67;53.03;98786.16;15281958;19;20018;-55
2023/08/11 15:27:25;;;;;;;1.85;0.60;;;;;;;32.78;51.34;98791.59;15283247;19;20348;-56
2023/08/11 15:32:52;;;;;;;1.33;0.55;;;;;;;33.09;51.44;98782.78;15298623;19;20021;-59
2023/08/11 15:38:17;;;;;;;1.48;0.40;;;;;;;33.24;47.58;98774.19;15290550;19;20090;-57
2023/08/11 15:43:41;;;;;;;1.75;0.40;;;;;;;33.13;49.95;98767.94;15292830;19;20029;-58
2023/08/11 15:49:15;;;;;;;1.05;0.50;;;;;;;33.42;47.96;98766.09;15301452;19;20026;-59
2023/08/11 15:54:41;;;;;;;0.93;0.50;;;;;;;33.79;48.49;98764.34;15293422;19;20026;-57
2023/08/11 16:00:07;;;;;;;0.80;0.40;;;;;;;33.86;46.93;98769.53;15299619;19;20013;-58
2023/08/11 16:05:34;;;;;;;0.55;0.40;;;;;;;34.05;46.56;98761.94;15294667;19;20056;-55
2023/08/11 16:10:59;;;;;;;0.52;0.40;;;;;;;34.05;47.96;98764.72;15294044;19;20018;-56
2023/08/11 16:16:31;;;;;;;3.13;0.50;;;;;;;34.16;46.15;98747.78;15286511;19;20018;-57
2023/08/11 16:21:58;;;;;;;0.50;0.50;;;;;;;34.26;45.42;98750.34;15298330;19;20015;-54
2023/08/11 16:27:23;;;;;;;2.72;0.50;;;;;;;34.37;46.59;98742.56;15295324;19;20395;-56
2023/08/11 16:32:49;;;;;;;2.22;0.40;;;;;;;34.50;44.69;98738.16;15295299;19;20507;-58
2023/08/11 16:38:16;;;;;;;0.47;0.40;;;;;;;34.55;45.36;98741.66;15293697;19;20070;-55
2023/08/11 16:43:41;;;;;;;3.55;0.52;;;;;;;34.41;45.22;98736.06;15288439;19;20037;-55
2023/08/11 16:49:06;;;;;;;1.75;0.30;;;;;;;34.35;46.55;98731.72;15287177;19;20026;-55
2023/08/11 16:54:33;;;;;;;0.40;0.40;;;;;;;34.30;44.49;98728.19;15294718;19;20037;-57
2023/08/11 16:59:59;;;;;;;1.02;0.50;;;;;;;34.16;44.46;98731.00;15297295;19;20007;-58
2023/08/11 17:05:25;;;;;;;0.70;0.50;;;;;;;34.01;45.81;98724.56;15292900;19;20018;-58
2023/08/11 17:10:53;;;;;;;0.40;0.40;;;;;;;33.75;46.42;98730.63;15296690;19;20031;-56
2023/08/11 17:16:19;;;;;;;2.67;0.50;;;;;;;33.40;45.59;98724.53;15285804;19;20023;-57
2023/08/11 17:21:43;;;;;;;2.30;0.40;;;;;;;33.25;48.35;98713.59;15288842;19;20098;-57
2023/08/11 17:27:10;;;;;;;1.50;0.40;;;;;;;32.94;49.21;98708.50;15288196;19;20011;-55
2023/08/11 17:32:42;;;;;;;0.95;0.30;;;;;;;32.48;49.33;98705.22;15290840;19;20021;-57
2023/08/11 17:38:08;;;;;;;1.38;0.50;;;;;;;31.99;50.28;98700.78;15284490;19;20018;-56
2023/08/11 17:43:36;;;;;;;1.52;0.43;;;;;;;31.47;51.57;98704.94;15290099;19;20025;-53
2023/08/11 17:49:01;;;;;;;2.17;0.60;;;;;;;30.87;52.52;98702.34;15286092;19;20077;-55
2023/08/11 17:54:25;;;;;;;2.85;0.57;;;;;;;30.43;54.44;98712.28;15279601;19;20015;-55
2023/08/11 17:59:53;;;;;;;7.53;0.82;;;;;;;29.82;54.68;98714.97;15289246;19;20021;-54
2023/08/11 18:05:22;;;;;;;6.28;0.90;;;;;;;29.39;56.33;98716.44;15289120;19;20019;-56
2023/08/11 18:10:47;;;;;;;6.57;1.10;;;;;;;28.91;57.37;98714.72;15290948;19;20021;-55
2023/08/11 18:16:14;;;;;;;7.55;1.17;;;;;;;28.56;59.54;98727.38;15283943;19;20049;-54
2023/08/11 18:21:39;;;;;;;23.92;2.20;;;;;;;28.21;62.66;98734.44;15284957;19;20022;-56
2023/08/11 18:27:03;;;;;;;15.45;1.58;;;;;;;27.90;64.34;98725.91;15279236;19;20035;-57
2023/08/11 18:32:32;;;;;;;1.92;0.77;;;;;;;27.60;65.82;98730.16;15291437;19;20021;-55
2023/08/11 18:37:57;;;;;;;2.33;0.75;;;;;;;27.27;67.37;98732.09;15297045;19;20015;-57
2023/08/11 18:43:22;;;;;;;1.15;0.70;;;;;;;27.02;68.39;98742.66;15290705;19;20011;-59
2023/08/11 18:48:50;;;;;;;2.50;0.65;;;;;;;26.76;73.96;98745.13;15290362;19;20018;-55
2023/08/11 18:54:15;;;;;;;2.15;0.70;;;;;;;26.46;82.27;98749.22;15282869;19;20014;-54
2023/08/11 18:59:39;;;;;;;1.85;0.68;;;;;;;26.14;89.13;98738.88;15288893;19;20487;-54
2023/08/11 19:05:07;;;;;;;3.55;0.80;;;;;;;25.90;99.79;98748.47;15285834;19;20418;-60
2023/08/11 19:10:32;;;;;;;2.15;0.80;;;;;;;25.60;100.00;98752.41;15288455;19;20014;-57
2023/08/11 19:15:57;;;;;;;2.55;0.80;;;;;;;25.27;100.00;98751.31;15284943;19;20455;-54
2023/08/11 19:21:25;;;;;;;4.43;0.98;;;;;;;24.95;100.00;98743.59;15286575;19;20035;-56
2023/08/11 19:26:50;;;;;;;2.33;0.73;;;;;;;24.65;100.00;98750.16;15280031;19;20474;-52
2023/08/11 19:32:16;;;;;;;2.17;0.70;;;;;;;24.46;100.00;98751.16;15283506;19;20360;-55
2023/08/11 19:37:43;;;;;;;1.67;0.60;;;;;;;24.38;100.00;98745.22;15280225;19;20020;-53
2023/08/11 19:43:10;;;;;;;3.00;0.70;;;;;;;24.30;100.00;98749.19;15284861;19;20489;-56
2023/08/11 19:48:35;;;;;;;2.05;0.68;;;;;;;24.25;100.00;98738.91;15286189;19;20014;-54
2023/08/11 19:54:02;;;;;;;2.55;0.73;;;;;;;24.22;100.00;98744.91;15280019;19;20106;-52
2023/08/11 19:59:27;;;;;;;0.60;0.60;;;;;;;24.19;100.00;98745.38;15275777;19;20014;-52
2023/08/11 20:04:51;;;;;;;2.35;0.90;;;;;;;24.09;100.00;98740.50;15282683;19;20058;-57
2023/08/11 20:10:20;;;;;;;2.20;0.70;;;;;;;24.02;100.00;98744.47;15286650;19;20016;-51
2023/08/11 20:15:46;;;;;;;5.30;0.75;;;;;;;23.89;100.00;98742.75;15281240;19;20513;-55
2023/08/11 20:21:11;;;;;;;2.83;0.85;;;;;;;23.75;100.00;98743.03;15301351;19;20014;-55
2023/08/11 20:26:38;;;;;;;3.22;0.90;;;;;;;23.65;100.00;98738.13;15292979;19;20027;-57
2023/08/11 20:32:04;;;;;;;2.05;0.80;;;;;;;23.57;100.00;98735.72;15292107;19;20025;-56
2023/08/11 20:37:29;;;;;;;3.78;0.90;;;;;;;23.51;100.00;98725.66;15292994;19;20014;-57
2023/08/11 20:42:56;;;;;;;1.27;0.80;;;;;;;23.46;100.00;98720.06;15296414;19;20009;-57
2023/08/11 20:48:21;;;;;;;2.38;0.80;;;;;;;23.37;100.00;98714.91;15291468;19;20471;-55
2023/08/11 20:53:46;;;;;;;2.90;0.70;;;;;;;23.29;100.00;98712.50;15295804;19;20028;-57
2023/08/11 20:59:13;;;;;;;1.63;0.82;;;;;;;23.19;100.00;98704.00;15292600;19;20010;-53
2023/08/11 21:04:38;;;;;;;2.78;0.75;;;;;;;23.09;100.00;98691.66;15288848;19;20213;-56
2023/08/11 21:10:02;;;;;;;1.80;0.80;;;;;;;22.99;100.00;98691.38;15274781;19;20011;-54
2023/08/11 21:15:29;;;;;;;3.80;0.80;;;;;;;22.93;100.00;98692.34;15292046;19;20049;-55
2023/08/11 21:20:54;;;;;;;0.75;0.70;;;;;;;22.87;100.00;98696.06;15297030;19;20018;-56
2023/08/11 21:26:19;;;;;;;2.38;0.70;;;;;;;22.80;100.00;98698.03;15288557;19;20380;-54
2023/08/11 21:31:46;;;;;;;0.70;0.70;;;;;;;22.73;100.00;98701.75;15286483;19;20029;-55
2023/08/11 21:37:11;;;;;;;1.13;0.80;;;;;;;22.67;100.00;98704.56;15285733;19;20013;-53
2023/08/11 21:42:35;;;;;;;4.15;0.82;;;;;;;22.45;100.00;98696.88;15293005;19;20006;-54
2023/08/11 21:48:03;;;;;;;3.97;0.90;;;;;;;22.23;100.00;98699.22;15291842;19;20078;-55
2023/08/11 21:53:27;;;;;;;1.33;0.80;;;;;;;21.95;100.00;98708.81;15290575;19;20554;-55
2023/08/11 21:58:52;;;;;;;1.55;0.90;;;;;;;21.80;100.00;98695.50;15292864;19;20014;-55
2023/08/11 22:04:19;;;;;;;1.17;0.70;;;;;;;21.67;100.00;98697.31;15283146;19;20025;-53
2023/08/11 22:09:44;;;;;;;1.45;0.70;;;;;;;21.60;100.00;98696.56;15284336;19;20415;-56
2023/08/11 22:15:09;;;;;;;1.30;0.82;;;;;;;21.49;100.00;98705.50;15289158;19;20722;-50
2023/08/11 22:20:45;;;;;;;1.67;0.80;;;;;;;21.43;100.00;98699.00;15300164;19;20092;-53
2023/08/11 22:26:10;;;;;;;1.45;0.70;;;;;;;21.38;100.00;98704.31;15268774;19;20363;-46
2023/08/11 22:31:34;;;;;;;2.75;0.88;;;;;;;21.25;100.00;98708.84;15284244;19;20018;-51
2023/08/11 22:37:05;;;;;;;1.40;0.80;;;;;;;21.21;100.00;98704.91;15278126;19;20581;-47
2023/08/11 22:42:31;;;;;;;1.35;0.70;;;;;;;21.18;100.00;98699.88;15280687;19;20018;-47
2023/08/11 22:47:56;;;;;;;2.22;0.95;;;;;;;21.18;100.00;98699.00;15289813;19;20006;-46
2023/08/11 22:53:24;;;;;;;1.65;0.77;;;;;;;21.13;100.00;98702.41;15285650;19;20025;-48
2023/08/11 22:58:49;;;;;;;1.40;0.85;;;;;;;;;;15288732;19;20422;-48
2023/08/11 23:04:14;;;;;;;1.25;0.88;;;;;;;21.04;100.00;98682.72;15284072;19;20477;-48
2023/08/11 23:09:42;;;;;;;1.17;0.80;;;;;;;20.97;100.00;98687.38;15282634;19;20010;-48
2023/08/11 23:15:06;;;;;;;2.67;0.90;;;;;;;20.80;100.00;98692.56;15278138;19;20020;-47
2023/08/11 23:20:31;;;;;;;2.67;0.70;;;;;;;20.69;100.00;98690.50;15286103;19;20018;-47
2023/08/11 23:26:08;;;;;;;1.40;0.75;;;;;;;20.64;100.00;98705.69;15282111;19;20023;-47
2023/08/11 23:31:34;;;;;;;2.70;0.80;;;;;;;20.60;100.00;98701.72;15285407;19;20482;-48
2023/08/11 23:37:00;;;;;;;4.05;0.77;;;;;;;20.55;100.00;98709.75;15282456;19;20014;-49
2023/08/11 23:42:30;;;;;;;0.65;0.65;;;;;;;20.51;100.00;98710.41;15280994;19;20684;-45
2023/08/11 23:47:55;;;;;;;1.92;0.80;;;;;;;20.48;100.00;98711.69;15277494;19;20025;-47
2023/08/11 23:53:20;;;;;;;0.90;0.77;;;;;;;20.43;100.00;98704.13;15295764;19;20045;-47
2023/08/11 23:58:48;;;;;;;4.82;0.80;;;;;;;20.40;100.00;98703.75;15293370;19;20082;-47
